createdAt,value
2023-03-23T15:58:43.145Z,37.64
2023-03-23T15:59:45.830Z,38.25
2023-03-23T16:00:49.553Z,37.80
2023-03-23T16:01:51.286Z,38.28
2023-03-23T16:03:05.057Z,37.92
2023-03-23T16:04:11.951Z,38.35
2023-03-23T16:05:13.864Z,37.68
2023-03-23T16:06:23.917Z,37.73
2023-03-23T16:07:27.302Z,37.67
2023-03-23T16:08:29.302Z,38.02
2023-03-23T16:09:30.996Z,37.97
2023-03-23T16:10:32.563Z,38.36
2023-03-23T16:11:34.518Z,38.14
2023-03-23T16:12:36.027Z,38.49
2023-03-23T16:13:38.057Z,39.00
2023-03-23T16:14:41.068Z,39.20
2023-03-23T16:15:42.977Z,39.20
2023-03-23T16:16:50.495Z,39.26
2023-03-23T16:17:52.697Z,39.18
2023-03-23T16:18:54.915Z,39.03
2023-03-23T16:19:56.523Z,39.22
2023-03-23T16:20:58.142Z,39.06
2023-03-23T16:21:59.724Z,38.71
2023-03-23T16:23:01.371Z,39.27
2023-03-23T16:24:03.573Z,38.97
2023-03-23T16:25:05.625Z,39.32
2023-03-23T16:26:07.273Z,39.69
2023-03-23T16:27:11.127Z,38.92
2023-03-23T16:28:14.129Z,39.52
2023-03-23T16:29:33.752Z,39.73
2023-03-23T16:30:40.288Z,39.59
2023-03-23T16:31:41.980Z,39.82
2023-03-23T16:32:44.537Z,39.11
2023-03-23T16:33:46.140Z,39.98
2023-03-23T16:34:47.676Z,39.51
2023-03-23T16:35:49.234Z,39.79
2023-03-23T16:36:50.815Z,39.88
2023-03-23T16:38:07.307Z,40.36
2023-03-23T16:39:12.375Z,40.72
2023-03-23T16:40:15.558Z,40.73
2023-03-23T16:41:17.471Z,40.63
2023-03-23T16:42:19.076Z,41.24
2023-03-23T16:43:20.899Z,41.09
2023-03-23T16:44:22.531Z,41.30
2023-03-23T16:45:24.328Z,41.20
2023-03-23T16:46:25.987Z,41.52
2023-03-23T16:47:27.636Z,41.27
2023-03-23T16:48:29.364Z,41.94
2023-03-23T16:49:31.087Z,41.96
2023-03-23T16:50:33.819Z,42.43
2023-03-23T16:51:35.842Z,43.14
2023-03-23T16:52:46.342Z,42.26
2023-03-23T16:53:49.322Z,42.80
2023-03-23T16:54:50.968Z,43.19
2023-03-23T16:55:52.950Z,42.46
2023-03-23T16:56:54.581Z,43.59
2023-03-23T16:58:01.059Z,42.90
2023-03-23T16:59:10.851Z,43.67
2023-03-23T17:00:16.149Z,43.96
2023-03-23T17:01:17.765Z,43.67
2023-03-23T17:02:19.369Z,44.03
2023-03-23T17:03:22.485Z,43.82
2023-03-23T17:04:24.151Z,44.23
2023-03-23T17:05:28.373Z,44.71
2023-03-23T17:06:29.965Z,44.28
2023-03-23T17:07:31.546Z,44.74
2023-03-23T17:08:33.577Z,45.26
2023-03-23T17:09:35.328Z,45.01
2023-03-23T17:10:39.306Z,44.66
2023-03-23T17:11:40.839Z,44.93
2023-03-23T17:12:43.328Z,44.84
2023-03-23T17:13:44.899Z,45.19
2023-03-23T17:14:46.776Z,44.95
2023-03-23T17:15:53.221Z,45.18
2023-03-23T17:16:55.465Z,45.01
2023-03-23T17:17:57.073Z,45.45
2023-03-23T17:18:58.766Z,45.77
2023-03-23T17:20:00.376Z,44.90
2023-03-23T17:21:01.888Z,45.09
2023-03-23T17:22:03.960Z,44.58
2023-03-23T17:23:05.922Z,43.66
2023-03-23T17:24:07.876Z,44.04
2023-03-23T17:25:09.914Z,43.92
2023-03-23T17:26:11.541Z,44.34
2023-03-23T17:27:17.749Z,43.74
2023-03-23T17:28:21.019Z,44.48
2023-03-23T17:29:23.157Z,44.00
2023-03-23T17:30:24.706Z,43.38
2023-03-23T17:31:26.474Z,43.81
2023-03-23T17:32:28.127Z,43.32
2023-03-23T17:33:29.694Z,43.67
2023-03-23T17:34:31.404Z,43.48
2023-03-23T17:35:32.991Z,43.14
2023-03-23T17:36:34.598Z,43.08
2023-03-23T17:37:37.908Z,43.28
2023-03-23T17:38:39.478Z,44.01
2023-03-23T17:39:42.705Z,44.09
2023-03-23T17:40:45.323Z,44.90
2023-03-23T17:41:46.937Z,44.70
2023-03-23T17:42:48.520Z,45.63
2023-03-23T17:43:50.142Z,45.95
2023-03-23T17:44:51.702Z,46.48
2023-03-23T17:45:53.837Z,46.39
2023-03-23T17:47:00.166Z,46.08
2023-03-23T17:48:01.954Z,46.27
2023-03-23T17:49:04.164Z,46.31
2023-03-23T17:50:11.231Z,46.05
2023-03-23T17:51:14.451Z,45.72
2023-03-23T17:52:16.175Z,45.59
2023-03-23T17:53:18.592Z,45.90
2023-03-23T17:54:20.198Z,46.07
2023-03-23T17:55:21.883Z,45.34
2023-03-23T17:56:23.631Z,45.40
2023-03-23T17:57:25.270Z,45.29
2023-03-23T17:58:27.078Z,45.69
2023-03-23T17:59:29.211Z,46.17
2023-03-23T18:00:31.031Z,45.97
2023-03-23T18:01:32.756Z,46.57
2023-03-23T18:02:38.520Z,46.35
2023-03-23T18:03:40.131Z,46.81
2023-03-23T18:04:42.633Z,46.91
2023-03-23T18:05:44.491Z,47.64
2023-03-23T18:06:46.654Z,47.69
2023-03-23T18:07:48.260Z,47.70
2023-03-23T18:08:49.795Z,48.56
2023-03-23T18:09:51.383Z,49.00
2023-03-23T18:10:56.143Z,48.94
2023-03-23T18:11:57.844Z,48.15
2023-03-23T18:12:59.415Z,48.50
2023-03-23T18:14:01.221Z,48.72
2023-03-23T18:15:02.823Z,48.55
2023-03-23T18:16:05.520Z,48.65
2023-03-23T18:17:07.424Z,48.93
2023-03-23T18:18:10.255Z,48.92
2023-03-23T18:19:12.030Z,49.51
2023-03-23T18:20:14.169Z,49.40
2023-03-23T18:21:16.588Z,49.67
2023-03-23T18:22:18.282Z,49.78
2023-03-23T18:23:19.876Z,49.64
2023-03-23T18:24:21.526Z,50.03
2023-03-23T18:25:23.480Z,49.61
2023-03-23T18:26:25.059Z,49.29
2023-03-23T18:27:27.158Z,48.81
2023-03-23T18:28:29.348Z,49.15
2023-03-23T18:29:31.021Z,49.83
2023-03-23T18:30:34.367Z,50.17
2023-03-23T18:31:40.126Z,49.33
2023-03-23T18:32:42.919Z,49.64
2023-03-23T18:33:47.111Z,50.04
2023-03-23T18:34:48.846Z,49.87
2023-03-23T18:35:57.018Z,50.32
2023-03-23T18:36:58.694Z,50.10
2023-03-23T18:38:00.437Z,50.32
2023-03-23T18:39:02.408Z,50.60
2023-03-23T18:40:05.519Z,51.10
2023-03-23T18:41:10.856Z,51.37
2023-03-23T18:42:12.512Z,51.08
2023-03-23T18:43:14.190Z,50.63
2023-03-23T18:44:15.831Z,51.12
2023-03-23T18:45:17.584Z,51.00
2023-03-23T18:46:19.304Z,50.71
2023-03-23T18:47:21.515Z,50.59
2023-03-23T18:48:24.194Z,50.48
2023-03-23T18:49:26.360Z,50.29
2023-03-23T18:50:27.924Z,49.65
2023-03-23T18:51:30.950Z,49.78
2023-03-23T18:52:32.923Z,50.06
2023-03-23T18:53:34.744Z,50.30
2023-03-23T18:54:38.295Z,49.21
2023-03-23T18:55:39.895Z,49.59
2023-03-23T18:56:41.596Z,49.95
2023-03-23T18:57:43.807Z,50.52
2023-03-23T18:58:46.342Z,50.54
2023-03-23T18:59:48.223Z,50.96
2023-03-23T19:00:49.976Z,50.42
2023-03-23T19:01:52.114Z,50.38
2023-03-23T19:02:53.857Z,50.05
2023-03-23T19:03:55.492Z,50.30
2023-03-23T19:04:57.169Z,50.30
2023-03-23T19:06:00.367Z,49.96
2023-03-23T19:07:03.434Z,49.99
2023-03-23T19:08:06.446Z,50.37
2023-03-23T19:09:07.976Z,50.70
2023-03-23T19:10:09.752Z,50.47
2023-03-23T19:11:11.579Z,50.55
2023-03-23T19:12:13.856Z,50.83
2023-03-23T19:13:17.205Z,51.43
2023-03-23T19:14:19.436Z,52.13
2023-03-23T19:15:21.063Z,52.55
2023-03-23T19:16:22.649Z,53.40
2023-03-23T19:17:25.206Z,53.03
2023-03-23T19:18:26.992Z,52.77
2023-03-23T19:19:28.720Z,52.48
2023-03-23T19:21:06.577Z,52.47
2023-03-23T19:22:55.202Z,51.82
2023-03-23T19:23:57.187Z,51.96
2023-03-23T19:24:58.781Z,51.32
2023-03-23T19:26:00.628Z,51.33
2023-03-23T19:27:02.547Z,51.19
2023-03-23T19:30:15.454Z,51.42
2023-03-23T19:31:18.942Z,51.31
2023-03-23T19:32:20.948Z,51.39
2023-03-23T19:33:23.394Z,51.02
2023-03-23T19:34:27.541Z,50.94
2023-03-23T19:35:29.895Z,50.84
2023-03-23T19:36:32.051Z,50.91
2023-03-23T19:37:34.830Z,50.96
2023-03-23T19:38:36.937Z,50.52
2023-03-23T19:39:41.750Z,51.48
2023-03-23T19:40:58.022Z,52.07
2023-03-23T19:41:59.824Z,52.81
2023-03-23T19:43:01.413Z,53.20
2023-03-23T19:44:04.026Z,54.09
2023-03-23T19:45:06.708Z,55.28
2023-03-23T19:46:08.672Z,55.59
2023-03-23T19:47:10.681Z,56.86
2023-03-23T19:48:12.397Z,57.88
2023-03-23T19:49:14.708Z,57.68
2023-03-23T19:50:16.791Z,57.69
2023-03-23T19:51:20.559Z,57.53
2023-03-23T19:52:22.674Z,57.65
2023-03-23T19:53:26.562Z,57.27
2023-03-23T19:54:28.495Z,57.93
2023-03-23T19:55:30.090Z,57.57
2023-03-23T19:56:32.597Z,57.58
2023-03-23T19:57:35.198Z,56.75
2023-03-23T19:58:36.818Z,57.28
2023-03-23T19:59:39.090Z,57.17
2023-03-23T20:00:41.505Z,57.34
2023-03-23T20:01:44.371Z,57.08
2023-03-23T20:02:45.991Z,56.72
2023-03-23T20:03:48.276Z,56.53
2023-03-23T20:04:49.949Z,56.31
2023-03-23T20:05:51.629Z,56.79
2023-03-23T20:06:55.366Z,57.49
2023-03-23T20:07:58.213Z,57.18
2023-03-23T20:09:00.728Z,56.95
2023-03-23T20:10:03.117Z,57.42
2023-03-23T20:11:06.464Z,57.46
2023-03-23T20:12:08.058Z,57.41
2023-03-23T20:13:11.717Z,58.25
2023-03-23T20:14:13.328Z,58.12
2023-03-23T20:15:15.440Z,57.92
2023-03-23T20:16:18.087Z,57.59
2023-03-23T20:17:19.704Z,57.55
2023-03-23T20:18:21.575Z,57.69
2023-03-23T20:19:23.588Z,57.54
2023-03-23T20:20:26.024Z,57.45
2023-03-23T20:21:28.255Z,57.28
2023-03-23T20:22:29.816Z,56.69
2023-03-23T20:23:32.215Z,56.14
2023-03-23T20:24:33.984Z,56.24
2023-03-23T20:25:35.789Z,55.51
2023-03-23T20:26:40.637Z,55.69
2023-03-23T20:27:43.672Z,55.60
2023-03-23T20:28:45.837Z,54.82
2023-03-23T20:29:48.231Z,54.80
2023-03-23T20:31:16.912Z,54.58
2023-03-23T20:32:22.001Z,54.32
2023-03-23T20:33:23.555Z,54.69
2023-03-23T20:34:31.628Z,54.99
2023-03-23T20:35:33.260Z,54.54
2023-03-23T20:36:40.268Z,54.96
2023-03-23T20:37:42.196Z,54.72
2023-03-23T20:38:44.736Z,54.70
2023-03-23T20:39:48.660Z,55.30
2023-03-23T20:40:51.260Z,54.77
2023-03-23T20:41:54.697Z,55.14
2023-03-23T20:42:57.877Z,55.50
2023-03-23T20:43:59.833Z,55.35
2023-03-23T20:45:01.981Z,55.14
2023-03-23T20:46:04.669Z,54.89
2023-03-23T20:47:07.498Z,54.71
2023-03-23T20:48:09.665Z,54.53
2023-03-23T20:49:11.748Z,54.72
2023-03-23T20:50:13.554Z,54.15
2023-03-23T20:51:15.692Z,54.04
2023-03-23T20:52:17.227Z,54.03
2023-03-23T20:53:18.834Z,54.36
2023-03-23T20:54:22.102Z,54.73
2023-03-23T20:55:24.167Z,54.12
2023-03-23T20:56:26.159Z,54.92
2023-03-23T20:57:28.795Z,55.07
2023-03-23T20:58:30.419Z,55.36
2023-03-23T20:59:31.995Z,55.51
2023-03-23T21:00:33.545Z,56.08
2023-03-23T21:01:35.582Z,55.22
2023-03-23T21:02:37.188Z,55.43
2023-03-23T21:03:40.982Z,55.40
2023-03-23T21:04:45.279Z,55.54
2023-03-23T21:05:47.324Z,55.64
2023-03-23T21:06:49.559Z,55.34
2023-03-23T21:07:51.120Z,55.90
2023-03-23T21:08:52.962Z,56.63
2023-03-23T21:09:54.589Z,56.06
2023-03-23T21:10:57.384Z,56.50
2023-03-23T21:11:59.344Z,57.06
2023-03-23T21:13:00.871Z,56.54
2023-03-23T21:14:04.050Z,56.72
2023-03-23T21:15:06.388Z,56.58
2023-03-23T21:16:08.363Z,57.40
2023-03-23T21:17:10.036Z,58.48
2023-03-23T21:18:12.292Z,58.46
2023-03-23T21:19:14.320Z,58.26
2023-03-23T21:20:16.031Z,58.76
2023-03-23T21:21:18.359Z,58.31
2023-03-23T21:22:20.248Z,58.57
2023-03-23T21:23:21.830Z,58.35
2023-03-23T21:24:29.030Z,58.22
2023-03-23T21:25:34.236Z,58.26
2023-03-23T21:26:38.625Z,59.05
2023-03-23T21:27:40.169Z,58.81
2023-03-23T21:28:42.429Z,59.92
2023-03-23T21:29:44.936Z,59.10
2023-03-23T21:30:48.366Z,58.43
2023-03-23T21:32:01.139Z,58.87
2023-03-23T21:33:08.991Z,58.65
2023-03-23T21:34:10.754Z,58.61
2023-03-23T21:35:12.394Z,58.78
2023-03-23T21:36:13.981Z,59.55
2023-03-23T21:37:16.073Z,59.77
2023-03-23T21:38:19.861Z,58.68
2023-03-23T21:39:22.444Z,59.38
2023-03-23T21:40:24.476Z,59.65
2023-03-23T21:41:27.017Z,59.40
2023-03-23T21:42:31.558Z,58.73
2023-03-23T21:43:33.202Z,59.15
2023-03-23T21:44:35.402Z,58.97
2023-03-23T21:45:38.217Z,58.85
2023-03-23T21:46:40.675Z,59.03
2023-03-23T21:47:42.243Z,58.36
2023-03-23T21:48:51.752Z,58.55
2023-03-23T21:49:56.587Z,58.55
2023-03-23T21:51:05.222Z,58.19
2023-03-23T21:52:07.030Z,58.33
2023-03-23T21:53:12.712Z,58.81
2023-03-23T21:54:15.038Z,59.30
2023-03-23T21:55:16.894Z,59.79
2023-03-23T21:56:18.932Z,59.27
2023-03-23T21:57:20.623Z,59.93
2023-03-23T21:58:27.350Z,60.51
2023-03-23T21:59:29.020Z,61.72
2023-03-23T22:00:30.579Z,63.14
2023-03-23T22:01:32.155Z,62.32
2023-03-23T22:02:33.981Z,62.88
2023-03-23T22:03:36.565Z,63.41
2023-03-23T22:04:38.166Z,63.92
2023-03-23T22:05:40.548Z,63.45
2023-03-23T22:06:42.446Z,64.48
2023-03-23T22:07:44.104Z,65.05
2023-03-23T22:08:46.833Z,65.54
2023-03-23T22:09:48.389Z,65.45
2023-03-23T22:11:00.405Z,65.95
2023-03-23T22:12:03.845Z,65.95
2023-03-23T22:13:05.809Z,66.38
2023-03-23T22:14:07.696Z,66.99
2023-03-23T22:15:13.745Z,67.13
2023-03-23T22:16:20.045Z,67.12
2023-03-23T22:17:21.816Z,67.71
2023-03-23T22:18:23.505Z,67.79
2023-03-23T22:19:25.113Z,67.84
2023-03-23T22:20:26.805Z,67.66
2023-03-23T22:21:29.069Z,66.73
2023-03-23T22:22:30.700Z,66.42
2023-03-23T22:23:32.496Z,65.85
2023-03-23T22:24:34.058Z,64.81
2023-03-23T22:25:37.574Z,65.58
2023-03-23T22:26:39.495Z,65.33
2023-03-23T22:27:42.839Z,64.72
2023-03-23T22:28:47.015Z,64.64
2023-03-23T22:29:48.561Z,63.97
2023-03-23T22:30:50.425Z,64.02
2023-03-23T22:31:52.054Z,63.67
2023-03-23T22:32:53.645Z,63.01
2023-03-23T22:33:57.001Z,63.00
2023-03-23T22:34:58.536Z,62.54
2023-03-23T22:36:06.220Z,62.34
2023-03-23T22:37:08.329Z,61.94
2023-03-23T22:38:09.980Z,62.62
2023-03-23T22:39:11.558Z,63.19
2023-03-23T22:40:13.462Z,62.74
2023-03-23T22:41:21.278Z,63.19
2023-03-23T22:42:22.833Z,63.39
2023-03-23T22:43:25.162Z,62.92
2023-03-23T22:44:27.115Z,63.16
2023-03-23T22:45:28.995Z,62.44
2023-03-23T22:46:30.856Z,63.02
2023-03-23T22:47:32.497Z,62.29
2023-03-23T22:48:34.168Z,62.37
2023-03-23T22:49:36.002Z,62.29
2023-03-23T22:50:37.529Z,62.99
2023-03-23T22:51:39.661Z,63.08
2023-03-23T22:52:41.333Z,62.84
2023-03-23T22:53:42.948Z,61.89
2023-03-23T22:54:44.539Z,62.81
2023-03-23T22:55:48.466Z,63.20
2023-03-23T22:56:50.236Z,62.77
2023-03-23T22:57:51.823Z,62.98
2023-03-23T22:58:54.670Z,63.04
2023-03-23T22:59:56.333Z,63.44
2023-03-23T23:01:07.703Z,63.97
2023-03-23T23:02:09.407Z,63.70
2023-03-23T23:03:11.896Z,63.84
2023-03-23T23:04:13.641Z,63.78
2023-03-23T23:05:15.692Z,63.19
2023-03-23T23:06:18.289Z,64.39
2023-03-23T23:09:35.383Z,65.05
2023-03-23T23:10:36.962Z,64.97
2023-03-23T23:11:39.328Z,65.60
2023-03-23T23:12:42.470Z,65.41
2023-03-23T23:13:44.368Z,65.13
2023-03-23T23:14:46.009Z,65.92
2023-03-23T23:15:51.308Z,66.11
2023-03-23T23:16:52.974Z,66.15
2023-03-23T23:17:54.806Z,66.28
2023-03-23T23:18:56.475Z,66.65
2023-03-23T23:19:59.598Z,66.05
2023-03-23T23:21:07.982Z,67.36
2023-03-23T23:22:18.366Z,68.85
2023-03-23T23:23:21.677Z,68.63
2023-03-23T23:26:38.898Z,69.53
2023-03-23T23:27:40.610Z,69.62
2023-03-23T23:28:43.082Z,68.91
2023-03-23T23:29:44.938Z,68.74
2023-03-23T23:30:47.308Z,68.45
2023-03-23T23:31:49.054Z,68.66
2023-03-23T23:32:52.168Z,67.79
2023-03-23T23:33:56.099Z,68.79
2023-03-23T23:34:57.760Z,69.17
2023-03-23T23:35:59.537Z,69.20
2023-03-23T23:37:01.417Z,69.84
2023-03-23T23:38:04.409Z,69.35
2023-03-23T23:39:06.712Z,69.33
2023-03-23T23:40:09.339Z,69.88
2023-03-23T23:41:11.278Z,70.44
2023-03-23T23:42:12.860Z,70.62
2023-03-23T23:43:16.068Z,70.13
2023-03-23T23:44:17.778Z,69.99
2023-03-23T23:45:19.771Z,70.27
2023-03-23T23:46:21.644Z,69.15
2023-03-23T23:47:23.338Z,69.73
2023-03-23T23:48:25.016Z,69.30
2023-03-23T23:49:28.650Z,69.53
2023-03-23T23:50:30.293Z,68.29
2023-03-23T23:51:33.802Z,68.12
2023-03-23T23:52:36.836Z,68.63
2023-03-23T23:53:38.864Z,69.44
2023-03-23T23:54:42.544Z,69.31
2023-03-23T23:55:44.178Z,68.54
2023-03-23T23:56:45.975Z,69.00
2023-03-23T23:57:48.892Z,69.28
2023-03-23T23:58:51.056Z,69.61
2023-03-23T23:59:52.606Z,69.80
